sensor_id;sensor_type;location;lat;lon;timestamp;P1;durP1;ratioP1;P2;durP2;ratioP2
51724;SDS011;37801;53.224;6.552;2022-07-22T00:02:09;9.60;;;3.47;;
51724;SDS011;37801;53.224;6.552;2022-07-22T00:04:35;8.85;;;3.17;;
51724;SDS011;37801;53.224;6.552;2022-07-22T00:07:01;10.57;;;3.67;;
51724;SDS011;37801;53.224;6.552;2022-07-22T00:09:27;7.88;;;3.30;;
51724;SDS011;37801;53.224;6.552;2022-07-22T00:11:52;7.60;;;2.90;;
51724;SDS011;37801;53.224;6.552;2022-07-22T00:14:18;13.82;;;3.22;;
51724;SDS011;37801;53.224;6.552;2022-07-22T00:16:44;8.52;;;2.88;;
51724;SDS011;37801;53.224;6.552;2022-07-22T00:19:10;10.77;;;3.15;;
51724;SDS011;37801;53.224;6.552;2022-07-22T00:21:36;9.82;;;2.88;;
51724;SDS011;37801;53.224;6.552;2022-07-22T00:24:01;6.82;;;2.85;;
51724;SDS011;37801;53.224;6.552;2022-07-22T00:26:28;6.03;;;2.25;;
51724;SDS011;37801;53.224;6.552;2022-07-22T00:28:54;8.18;;;2.30;;
51724;SDS011;37801;53.224;6.552;2022-07-22T00:31:19;9.18;;;2.72;;
51724;SDS011;37801;53.224;6.552;2022-07-22T00:33:45;5.93;;;2.05;;
51724;SDS011;37801;53.224;6.552;2022-07-22T00:36:11;7.68;;;2.20;;
51724;SDS011;37801;53.224;6.552;2022-07-22T00:38:37;6.78;;;2.15;;
51724;SDS011;37801;53.224;6.552;2022-07-22T00:41:03;6.28;;;2.13;;
51724;SDS011;37801;53.224;6.552;2022-07-22T00:43:47;11.23;;;2.42;;
51724;SDS011;37801;53.224;6.552;2022-07-22T00:46:19;6.30;;;1.83;;
51724;SDS011;37801;53.224;6.552;2022-07-22T00:48:45;7.97;;;2.42;;
51724;SDS011;37801;53.224;6.552;2022-07-22T00:51:11;5.00;;;2.00;;
51724;SDS011;37801;53.224;6.552;2022-07-22T00:53:37;6.10;;;1.70;;
51724;SDS011;37801;53.224;6.552;2022-07-22T00:56:03;7.72;;;1.95;;
51724;SDS011;37801;53.224;6.552;2022-07-22T00:58:29;7.28;;;2.00;;
51724;SDS011;37801;53.224;6.552;2022-07-22T01:00:55;6.13;;;1.65;;
51724;SDS011;37801;53.224;6.552;2022-07-22T01:03:21;7.03;;;1.80;;
51724;SDS011;37801;53.224;6.552;2022-07-22T01:05:47;5.93;;;1.95;;
51724;SDS011;37801;53.224;6.552;2022-07-22T01:08:13;5.90;;;2.00;;
51724;SDS011;37801;53.224;6.552;2022-07-22T01:10:38;5.35;;;1.95;;
51724;SDS011;37801;53.224;6.552;2022-07-22T01:13:05;4.70;;;1.90;;
51724;SDS011;37801;53.224;6.552;2022-07-22T01:15:31;8.20;;;1.70;;
51724;SDS011;37801;53.224;6.552;2022-07-22T01:17:58;6.18;;;2.20;;
51724;SDS011;37801;53.224;6.552;2022-07-22T01:20:24;4.95;;;1.85;;
51724;SDS011;37801;53.224;6.552;2022-07-22T01:22:51;4.03;;;1.65;;
51724;SDS011;37801;53.224;6.552;2022-07-22T01:25:17;6.18;;;1.58;;
51724;SDS011;37801;53.224;6.552;2022-07-22T01:27:42;4.63;;;1.50;;
51724;SDS011;37801;53.224;6.552;2022-07-22T01:30:08;7.80;;;1.75;;
51724;SDS011;37801;53.224;6.552;2022-07-22T01:32:35;5.53;;;1.70;;
51724;SDS011;37801;53.224;6.552;2022-07-22T01:35:01;6.22;;;1.63;;
51724;SDS011;37801;53.224;6.552;2022-07-22T01:37:27;6.20;;;1.85;;
51724;SDS011;37801;53.224;6.552;2022-07-22T01:39:53;5.15;;;1.48;;
51724;SDS011;37801;53.224;6.552;2022-07-22T01:42:19;8.30;;;2.00;;
51724;SDS011;37801;53.224;6.552;2022-07-22T01:44:45;5.90;;;1.58;;
51724;SDS011;37801;53.224;6.552;2022-07-22T01:47:10;11.35;;;2.22;;
51724;SDS011;37801;53.224;6.552;2022-07-22T01:49:36;5.00;;;1.60;;
51724;SDS011;37801;53.224;6.552;2022-07-22T01:52:03;6.05;;;1.65;;
51724;SDS011;37801;53.224;6.552;2022-07-22T01:54:29;8.15;;;1.98;;
51724;SDS011;37801;53.224;6.552;2022-07-22T01:56:55;5.28;;;1.77;;
51724;SDS011;37801;53.224;6.552;2022-07-22T01:59:20;4.53;;;1.70;;
51724;SDS011;37801;53.224;6.552;2022-07-22T02:01:46;4.25;;;1.38;;
51724;SDS011;37801;53.224;6.552;2022-07-22T02:04:12;5.50;;;1.52;;
51724;SDS011;37801;53.224;6.552;2022-07-22T02:06:37;7.20;;;1.90;;
51724;SDS011;37801;53.224;6.552;2022-07-22T02:09:03;5.10;;;1.60;;
51724;SDS011;37801;53.224;6.552;2022-07-22T02:11:29;5.63;;;1.40;;
51724;SDS011;37801;53.224;6.552;2022-07-22T02:13:55;5.32;;;1.73;;
51724;SDS011;37801;53.224;6.552;2022-07-22T02:16:21;6.63;;;1.63;;
51724;SDS011;37801;53.224;6.552;2022-07-22T02:18:47;5.97;;;1.60;;
51724;SDS011;37801;53.224;6.552;2022-07-22T02:21:13;5.90;;;1.75;;
51724;SDS011;37801;53.224;6.552;2022-07-22T02:23:39;5.22;;;1.48;;
51724;SDS011;37801;53.224;6.552;2022-07-22T02:26:04;4.55;;;1.50;;
51724;SDS011;37801;53.224;6.552;2022-07-22T02:28:30;3.45;;;1.33;;
51724;SDS011;37801;53.224;6.552;2022-07-22T02:30:56;4.65;;;1.58;;
51724;SDS011;37801;53.224;6.552;2022-07-22T02:33:22;5.50;;;1.65;;
51724;SDS011;37801;53.224;6.552;2022-07-22T02:35:48;6.70;;;1.63;;
51724;SDS011;37801;53.224;6.552;2022-07-22T02:38:14;6.32;;;1.77;;
51724;SDS011;37801;53.224;6.552;2022-07-22T02:40:40;10.05;;;2.08;;
51724;SDS011;37801;53.224;6.552;2022-07-22T02:43:05;3.60;;;1.58;;
51724;SDS011;37801;53.224;6.552;2022-07-22T02:45:32;9.65;;;1.75;;
51724;SDS011;37801;53.224;6.552;2022-07-22T02:47:58;4.85;;;1.30;;
51724;SDS011;37801;53.224;6.552;2022-07-22T02:50:24;7.82;;;1.67;;
51724;SDS011;37801;53.224;6.552;2022-07-22T02:52:50;5.53;;;1.48;;
51724;SDS011;37801;53.224;6.552;2022-07-22T02:55:16;6.45;;;1.52;;
51724;SDS011;37801;53.224;6.552;2022-07-22T02:57:43;4.32;;;1.45;;
51724;SDS011;37801;53.224;6.552;2022-07-22T03:00:09;6.40;;;1.70;;
51724;SDS011;37801;53.224;6.552;2022-07-22T03:02:37;5.22;;;1.20;;
51724;SDS011;37801;53.224;6.552;2022-07-22T03:05:03;5.47;;;1.42;;
51724;SDS011;37801;53.224;6.552;2022-07-22T03:07:30;4.75;;;1.42;;
51724;SDS011;37801;53.224;6.552;2022-07-22T03:09:56;3.53;;;1.30;;
51724;SDS011;37801;53.224;6.552;2022-07-22T03:12:22;3.58;;;1.42;;
51724;SDS011;37801;53.224;6.552;2022-07-22T03:14:48;6.47;;;1.50;;
51724;SDS011;37801;53.224;6.552;2022-07-22T03:17:14;6.25;;;1.30;;
51724;SDS011;37801;53.224;6.552;2022-07-22T03:19:39;5.32;;;1.58;;
51724;SDS011;37801;53.224;6.552;2022-07-22T03:22:05;4.30;;;1.58;;
51724;SDS011;37801;53.224;6.552;2022-07-22T03:24:31;2.97;;;1.23;;
51724;SDS011;37801;53.224;6.552;2022-07-22T03:26:56;3.78;;;1.20;;
51724;SDS011;37801;53.224;6.552;2022-07-22T03:29:22;6.38;;;1.42;;
51724;SDS011;37801;53.224;6.552;2022-07-22T03:31:48;3.35;;;1.30;;
51724;SDS011;37801;53.224;6.552;2022-07-22T03:34:14;5.40;;;1.33;;
51724;SDS011;37801;53.224;6.552;2022-07-22T03:36:39;5.20;;;1.52;;
51724;SDS011;37801;53.224;6.552;2022-07-22T03:39:05;4.15;;;1.13;;
51724;SDS011;37801;53.224;6.552;2022-07-22T03:41:31;7.35;;;1.50;;
51724;SDS011;37801;53.224;6.552;2022-07-22T03:43:56;6.03;;;1.48;;
51724;SDS011;37801;53.224;6.552;2022-07-22T03:46:22;5.38;;;1.38;;
51724;SDS011;37801;53.224;6.552;2022-07-22T03:48:48;6.65;;;1.67;;
51724;SDS011;37801;53.224;6.552;2022-07-22T03:51:14;5.07;;;1.63;;
51724;SDS011;37801;53.224;6.552;2022-07-22T03:53:39;5.05;;;1.50;;
51724;SDS011;37801;53.224;6.552;2022-07-22T03:56:05;3.88;;;1.27;;
51724;SDS011;37801;53.224;6.552;2022-07-22T03:58:31;7.30;;;1.50;;
51724;SDS011;37801;53.224;6.552;2022-07-22T04:00:57;6.07;;;1.45;;
51724;SDS011;37801;53.224;6.552;2022-07-22T04:03:23;6.28;;;1.40;;
51724;SDS011;37801;53.224;6.552;2022-07-22T04:05:48;5.63;;;1.40;;
51724;SDS011;37801;53.224;6.552;2022-07-22T04:08:16;4.80;;;1.83;;
51724;SDS011;37801;53.224;6.552;2022-07-22T04:10:42;7.22;;;1.55;;
51724;SDS011;37801;53.224;6.552;2022-07-22T04:13:08;3.53;;;1.20;;
51724;SDS011;37801;53.224;6.552;2022-07-22T04:15:34;5.85;;;1.40;;
51724;SDS011;37801;53.224;6.552;2022-07-22T04:18:00;5.80;;;1.30;;
51724;SDS011;37801;53.224;6.552;2022-07-22T04:20:26;4.18;;;1.40;;
51724;SDS011;37801;53.224;6.552;2022-07-22T04:22:52;5.03;;;1.30;;
51724;SDS011;37801;53.224;6.552;2022-07-22T04:25:18;8.43;;;1.70;;
51724;SDS011;37801;53.224;6.552;2022-07-22T04:27:44;5.15;;;1.48;;
51724;SDS011;37801;53.224;6.552;2022-07-22T04:30:09;5.82;;;1.48;;
51724;SDS011;37801;53.224;6.552;2022-07-22T04:32:35;6.40;;;1.63;;
51724;SDS011;37801;53.224;6.552;2022-07-22T04:35:01;4.07;;;1.23;;
51724;SDS011;37801;53.224;6.552;2022-07-22T04:37:27;6.05;;;1.60;;
51724;SDS011;37801;53.224;6.552;2022-07-22T04:39:54;4.55;;;1.60;;
51724;SDS011;37801;53.224;6.552;2022-07-22T04:42:20;6.20;;;1.58;;
51724;SDS011;37801;53.224;6.552;2022-07-22T04:44:46;8.25;;;1.50;;
51724;SDS011;37801;53.224;6.552;2022-07-22T04:47:12;5.07;;;1.60;;
51724;SDS011;37801;53.224;6.552;2022-07-22T04:49:38;4.13;;;1.30;;
51724;SDS011;37801;53.224;6.552;2022-07-22T04:52:04;6.55;;;1.73;;
51724;SDS011;37801;53.224;6.552;2022-07-22T04:54:29;4.95;;;1.52;;
51724;SDS011;37801;53.224;6.552;2022-07-22T04:56:55;3.95;;;1.40;;
51724;SDS011;37801;53.224;6.552;2022-07-22T04:59:21;4.78;;;1.27;;
51724;SDS011;37801;53.224;6.552;2022-07-22T05:01:47;3.30;;;1.10;;
51724;SDS011;37801;53.224;6.552;2022-07-22T05:04:12;4.93;;;1.50;;
51724;SDS011;37801;53.224;6.552;2022-07-22T05:06:38;6.15;;;1.40;;
51724;SDS011;37801;53.224;6.552;2022-07-22T05:09:04;5.60;;;1.20;;
51724;SDS011;37801;53.224;6.552;2022-07-22T05:11:30;2.53;;;1.13;;
51724;SDS011;37801;53.224;6.552;2022-07-22T05:13:56;5.07;;;1.10;;
51724;SDS011;37801;53.224;6.552;2022-07-22T05:16:21;4.35;;;0.98;;
51724;SDS011;37801;53.224;6.552;2022-07-22T05:18:47;6.35;;;1.23;;
51724;SDS011;37801;53.224;6.552;2022-07-22T05:21:13;4.32;;;1.13;;
51724;SDS011;37801;53.224;6.552;2022-07-22T05:23:38;6.82;;;1.55;;
51724;SDS011;37801;53.224;6.552;2022-07-22T05:26:04;4.18;;;0.90;;
51724;SDS011;37801;53.224;6.552;2022-07-22T05:28:31;4.68;;;1.33;;
51724;SDS011;37801;53.224;6.552;2022-07-22T05:30:57;7.38;;;1.40;;
51724;SDS011;37801;53.224;6.552;2022-07-22T05:33:25;4.80;;;1.25;;
51724;SDS011;37801;53.224;6.552;2022-07-22T05:35:51;4.70;;;1.10;;
51724;SDS011;37801;53.224;6.552;2022-07-22T05:38:16;8.40;;;1.15;;
51724;SDS011;37801;53.224;6.552;2022-07-22T05:40:42;3.38;;;1.27;;
51724;SDS011;37801;53.224;6.552;2022-07-22T05:43:08;5.57;;;1.10;;
51724;SDS011;37801;53.224;6.552;2022-07-22T05:45:33;3.08;;;1.10;;
51724;SDS011;37801;53.224;6.552;2022-07-22T05:47:59;4.45;;;1.13;;
51724;SDS011;37801;53.224;6.552;2022-07-22T05:50:26;4.03;;;1.30;;
51724;SDS011;37801;53.224;6.552;2022-07-22T05:52:52;5.68;;;1.10;;
51724;SDS011;37801;53.224;6.552;2022-07-22T05:55:17;3.67;;;1.20;;
51724;SDS011;37801;53.224;6.552;2022-07-22T05:57:44;3.33;;;1.00;;
51724;SDS011;37801;53.224;6.552;2022-07-22T06:00:09;3.22;;;1.00;;
51724;SDS011;37801;53.224;6.552;2022-07-22T06:02:35;6.15;;;1.15;;
51724;SDS011;37801;53.224;6.552;2022-07-22T06:05:01;4.32;;;1.30;;
51724;SDS011;37801;53.224;6.552;2022-07-22T06:07:27;6.85;;;1.33;;
51724;SDS011;37801;53.224;6.552;2022-07-22T06:09:53;4.35;;;1.33;;
51724;SDS011;37801;53.224;6.552;2022-07-22T06:12:19;5.10;;;1.30;;
51724;SDS011;37801;53.224;6.552;2022-07-22T06:14:45;9.40;;;1.50;;
51724;SDS011;37801;53.224;6.552;2022-07-22T06:17:11;3.50;;;1.27;;
51724;SDS011;37801;53.224;6.552;2022-07-22T06:19:38;4.63;;;1.42;;
51724;SDS011;37801;53.224;6.552;2022-07-22T06:22:04;5.18;;;1.23;;
51724;SDS011;37801;53.224;6.552;2022-07-22T06:24:29;5.47;;;1.20;;
51724;SDS011;37801;53.224;6.552;2022-07-22T06:26:55;5.03;;;1.10;;
51724;SDS011;37801;53.224;6.552;2022-07-22T06:29:21;6.68;;;1.23;;
51724;SDS011;37801;53.224;6.552;2022-07-22T06:31:47;5.43;;;1.27;;
51724;SDS011;37801;53.224;6.552;2022-07-22T06:34:14;4.95;;;1.20;;
51724;SDS011;37801;53.224;6.552;2022-07-22T06:36:39;6.18;;;1.58;;
51724;SDS011;37801;53.224;6.552;2022-07-22T06:39:05;2.65;;;1.17;;
51724;SDS011;37801;53.224;6.552;2022-07-22T06:41:31;4.30;;;1.00;;
51724;SDS011;37801;53.224;6.552;2022-07-22T06:43:57;3.72;;;1.00;;
51724;SDS011;37801;53.224;6.552;2022-07-22T06:46:22;5.63;;;1.25;;
51724;SDS011;37801;53.224;6.552;2022-07-22T06:48:48;6.05;;;1.20;;
51724;SDS011;37801;53.224;6.552;2022-07-22T06:51:14;3.00;;;0.90;;
51724;SDS011;37801;53.224;6.552;2022-07-22T06:53:40;7.38;;;1.38;;
51724;SDS011;37801;53.224;6.552;2022-07-22T06:56:06;4.90;;;1.30;;
51724;SDS011;37801;53.224;6.552;2022-07-22T06:58:32;5.38;;;1.33;;
51724;SDS011;37801;53.224;6.552;2022-07-22T07:00:58;3.05;;;0.98;;
51724;SDS011;37801;53.224;6.552;2022-07-22T07:03:24;3.92;;;1.13;;
51724;SDS011;37801;53.224;6.552;2022-07-22T07:05:51;3.70;;;1.20;;
51724;SDS011;37801;53.224;6.552;2022-07-22T07:08:17;3.40;;;1.10;;
51724;SDS011;37801;53.224;6.552;2022-07-22T07:10:43;4.45;;;1.20;;
51724;SDS011;37801;53.224;6.552;2022-07-22T07:13:09;3.08;;;1.02;;
51724;SDS011;37801;53.224;6.552;2022-07-22T07:15:35;4.40;;;1.30;;
51724;SDS011;37801;53.224;6.552;2022-07-22T07:18:01;6.45;;;1.10;;
51724;SDS011;37801;53.224;6.552;2022-07-22T07:20:26;3.78;;;0.93;;
51724;SDS011;37801;53.224;6.552;2022-07-22T07:22:52;3.15;;;1.08;;
51724;SDS011;37801;53.224;6.552;2022-07-22T07:25:18;4.05;;;0.93;;
51724;SDS011;37801;53.224;6.552;2022-07-22T07:27:44;6.80;;;1.20;;
51724;SDS011;37801;53.224;6.552;2022-07-22T07:30:10;3.30;;;1.10;;
51724;SDS011;37801;53.224;6.552;2022-07-22T07:32:37;3.15;;;0.90;;
51724;SDS011;37801;53.224;6.552;2022-07-22T07:35:03;3.72;;;1.05;;
51724;SDS011;37801;53.224;6.552;2022-07-22T07:37:31;3.30;;;0.70;;
51724;SDS011;37801;53.224;6.552;2022-07-22T07:39:57;3.75;;;0.98;;
51724;SDS011;37801;53.224;6.552;2022-07-22T07:42:23;4.05;;;1.20;;
51724;SDS011;37801;53.224;6.552;2022-07-22T07:44:49;4.03;;;1.27;;
51724;SDS011;37801;53.224;6.552;2022-07-22T07:47:15;5.03;;;1.10;;
51724;SDS011;37801;53.224;6.552;2022-07-22T07:49:44;2.65;;;1.05;;
51724;SDS011;37801;53.224;6.552;2022-07-22T07:52:10;2.70;;;0.70;;
51724;SDS011;37801;53.224;6.552;2022-07-22T07:54:38;2.90;;;0.80;;
51724;SDS011;37801;53.224;6.552;2022-07-22T07:57:05;2.72;;;1.02;;
51724;SDS011;37801;53.224;6.552;2022-07-22T07:59:35;7.70;;;1.33;;
51724;SDS011;37801;53.224;6.552;2022-07-22T08:02:02;3.65;;;0.98;;
51724;SDS011;37801;53.224;6.552;2022-07-22T08:04:28;2.90;;;0.80;;
51724;SDS011;37801;53.224;6.552;2022-07-22T08:06:54;4.00;;;1.05;;
51724;SDS011;37801;53.224;6.552;2022-07-22T08:09:20;4.85;;;1.20;;
51724;SDS011;37801;53.224;6.552;2022-07-22T08:11:46;2.47;;;1.10;;
51724;SDS011;37801;53.224;6.552;2022-07-22T08:14:11;3.80;;;0.90;;
51724;SDS011;37801;53.224;6.552;2022-07-22T08:16:37;3.13;;;0.88;;
51724;SDS011;37801;53.224;6.552;2022-07-22T08:19:03;3.47;;;0.80;;
51724;SDS011;37801;53.224;6.552;2022-07-22T08:21:29;6.00;;;1.10;;
51724;SDS011;37801;53.224;6.552;2022-07-22T08:23:55;2.65;;;1.08;;
51724;SDS011;37801;53.224;6.552;2022-07-22T08:26:20;2.28;;;0.90;;
51724;SDS011;37801;53.224;6.552;2022-07-22T08:28:46;4.30;;;0.90;;
51724;SDS011;37801;53.224;6.552;2022-07-22T08:31:12;4.80;;;0.90;;
51724;SDS011;37801;53.224;6.552;2022-07-22T08:33:38;2.28;;;0.80;;
51724;SDS011;37801;53.224;6.552;2022-07-22T08:36:06;4.18;;;0.93;;
51724;SDS011;37801;53.224;6.552;2022-07-22T08:38:32;5.20;;;1.05;;
51724;SDS011;37801;53.224;6.552;2022-07-22T08:40:57;3.70;;;1.05;;
51724;SDS011;37801;53.224;6.552;2022-07-22T08:43:26;5.72;;;1.40;;
51724;SDS011;37801;53.224;6.552;2022-07-22T08:45:51;6.60;;;1.15;;
51724;SDS011;37801;53.224;6.552;2022-07-22T08:48:17;3.85;;;0.95;;
51724;SDS011;37801;53.224;6.552;2022-07-22T08:50:43;5.82;;;1.17;;
51724;SDS011;37801;53.224;6.552;2022-07-22T08:53:10;4.63;;;1.20;;
51724;SDS011;37801;53.224;6.552;2022-07-22T08:55:40;5.57;;;1.15;;
51724;SDS011;37801;53.224;6.552;2022-07-22T08:58:10;3.83;;;0.95;;
51724;SDS011;37801;53.224;6.552;2022-07-22T09:00:37;4.22;;;0.90;;
51724;SDS011;37801;53.224;6.552;2022-07-22T09:03:16;1.95;;;0.70;;
51724;SDS011;37801;53.224;6.552;2022-07-22T09:08:13;5.55;;;0.95;;
51724;SDS011;37801;53.224;6.552;2022-07-22T09:10:39;5.95;;;1.00;;
51724;SDS011;37801;53.224;6.552;2022-07-22T09:13:08;5.65;;;1.00;;
51724;SDS011;37801;53.224;6.552;2022-07-22T09:15:36;4.00;;;1.13;;
51724;SDS011;37801;53.224;6.552;2022-07-22T09:18:04;3.70;;;1.00;;
51724;SDS011;37801;53.224;6.552;2022-07-22T09:20:31;2.92;;;0.90;;
51724;SDS011;37801;53.224;6.552;2022-07-22T09:22:58;3.75;;;0.80;;
51724;SDS011;37801;53.224;6.552;2022-07-22T09:25:27;4.50;;;0.90;;
51724;SDS011;37801;53.224;6.552;2022-07-22T09:30:32;6.78;;;3.45;;
51724;SDS011;37801;53.224;6.552;2022-07-22T09:32:59;4.93;;;1.70;;
51724;SDS011;37801;53.224;6.552;2022-07-22T09:35:25;4.55;;;1.23;;
51724;SDS011;37801;53.224;6.552;2022-07-22T09:37:53;5.85;;;1.05;;
51724;SDS011;37801;53.224;6.552;2022-07-22T09:40:24;3.22;;;1.00;;
51724;SDS011;37801;53.224;6.552;2022-07-22T09:42:56;2.95;;;1.00;;
51724;SDS011;37801;53.224;6.552;2022-07-22T09:45:24;4.43;;;0.93;;
51724;SDS011;37801;53.224;6.552;2022-07-22T09:47:53;5.55;;;0.90;;
51724;SDS011;37801;53.224;6.552;2022-07-22T09:50:30;1.88;;;0.70;;
51724;SDS011;37801;53.224;6.552;2022-07-22T09:52:58;3.25;;;0.80;;
51724;SDS011;37801;53.224;6.552;2022-07-22T09:55:25;2.25;;;0.70;;
51724;SDS011;37801;53.224;6.552;2022-07-22T09:57:53;3.60;;;1.00;;
51724;SDS011;37801;53.224;6.552;2022-07-22T10:00:20;4.63;;;0.80;;
51724;SDS011;37801;53.224;6.552;2022-07-22T10:02:50;2.90;;;0.82;;
51724;SDS011;37801;53.224;6.552;2022-07-22T10:05:20;2.72;;;0.80;;
51724;SDS011;37801;53.224;6.552;2022-07-22T10:07:48;2.00;;;0.73;;
51724;SDS011;37801;53.224;6.552;2022-07-22T10:10:15;2.15;;;0.63;;
51724;SDS011;37801;53.224;6.552;2022-07-22T10:12:43;2.55;;;0.80;;
51724;SDS011;37801;53.224;6.552;2022-07-22T10:15:11;2.72;;;0.85;;
51724;SDS011;37801;53.224;6.552;2022-07-22T10:17:38;1.83;;;0.50;;
51724;SDS011;37801;53.224;6.552;2022-07-22T10:20:08;2.95;;;0.70;;
51724;SDS011;37801;53.224;6.552;2022-07-22T10:25:07;1.80;;;0.70;;
51724;SDS011;37801;53.224;6.552;2022-07-22T10:27:43;0.93;;;0.40;;
51724;SDS011;37801;53.224;6.552;2022-07-22T10:30:12;2.70;;;0.80;;
51724;SDS011;37801;53.224;6.552;2022-07-22T10:32:39;1.40;;;0.60;;
51724;SDS011;37801;53.224;6.552;2022-07-22T10:37:37;2.92;;;0.70;;
51724;SDS011;37801;53.224;6.552;2022-07-22T10:45:25;2.95;;;0.75;;
51724;SDS011;37801;53.224;6.552;2022-07-22T10:50:45;3.80;;;0.90;;
51724;SDS011;37801;53.224;6.552;2022-07-22T10:56:24;3.10;;;0.60;;
51724;SDS011;37801;53.224;6.552;2022-07-22T10:58:55;2.50;;;0.60;;
51724;SDS011;37801;53.224;6.552;2022-07-22T11:01:24;1.73;;;0.50;;
51724;SDS011;37801;53.224;6.552;2022-07-22T11:03:53;1.52;;;0.60;;
51724;SDS011;37801;53.224;6.552;2022-07-22T11:08:57;3.78;;;0.52;;
51724;SDS011;37801;53.224;6.552;2022-07-22T11:11:36;3.17;;;0.52;;
51724;SDS011;37801;53.224;6.552;2022-07-22T11:14:03;1.35;;;0.68;;
51724;SDS011;37801;53.224;6.552;2022-07-22T11:16:44;2.15;;;0.70;;
51724;SDS011;37801;53.224;6.552;2022-07-22T11:19:11;2.35;;;0.70;;
51724;SDS011;37801;53.224;6.552;2022-07-22T11:21:37;3.55;;;0.90;;
51724;SDS011;37801;53.224;6.552;2022-07-22T11:24:06;2.83;;;0.73;;
51724;SDS011;37801;53.224;6.552;2022-07-22T11:26:36;4.45;;;0.70;;
51724;SDS011;37801;53.224;6.552;2022-07-22T11:29:02;1.27;;;0.60;;
51724;SDS011;37801;53.224;6.552;2022-07-22T11:31:28;2.38;;;0.50;;
51724;SDS011;37801;53.224;6.552;2022-07-22T11:34:04;1.83;;;0.63;;
51724;SDS011;37801;53.224;6.552;2022-07-22T11:36:32;3.47;;;0.70;;
51724;SDS011;37801;53.224;6.552;2022-07-22T11:38:59;3.80;;;1.08;;
51724;SDS011;37801;53.224;6.552;2022-07-22T11:41:25;1.92;;;0.80;;
51724;SDS011;37801;53.224;6.552;2022-07-22T11:43:54;2.15;;;0.52;;
51724;SDS011;37801;53.224;6.552;2022-07-22T11:46:20;1.15;;;0.60;;
51724;SDS011;37801;53.224;6.552;2022-07-22T11:48:48;2.92;;;0.50;;
51724;SDS011;37801;53.224;6.552;2022-07-22T11:51:14;2.25;;;0.88;;
51724;SDS011;37801;53.224;6.552;2022-07-22T11:53:41;3.05;;;0.88;;
51724;SDS011;37801;53.224;6.552;2022-07-22T11:56:08;2.42;;;0.73;;
51724;SDS011;37801;53.224;6.552;2022-07-22T12:01:15;2.08;;;0.95;;
51724;SDS011;37801;53.224;6.552;2022-07-22T12:03:44;3.58;;;0.73;;
51724;SDS011;37801;53.224;6.552;2022-07-22T12:06:15;2.30;;;0.40;;
51724;SDS011;37801;53.224;6.552;2022-07-22T12:08:43;0.45;;;0.35;;
51724;SDS011;37801;53.224;6.552;2022-07-22T12:11:12;1.20;;;0.40;;
51724;SDS011;37801;53.224;6.552;2022-07-22T12:13:41;1.65;;;0.40;;
51724;SDS011;37801;53.224;6.552;2022-07-22T12:16:21;1.73;;;0.47;;
51724;SDS011;37801;53.224;6.552;2022-07-22T12:18:53;0.88;;;0.50;;
51724;SDS011;37801;53.224;6.552;2022-07-22T12:21:25;1.23;;;0.45;;
51724;SDS011;37801;53.224;6.552;2022-07-22T12:23:53;1.58;;;0.40;;
51724;SDS011;37801;53.224;6.552;2022-07-22T12:26:41;1.30;;;0.45;;
51724;SDS011;37801;53.224;6.552;2022-07-22T12:31:59;3.38;;;0.50;;
51724;SDS011;37801;53.224;6.552;2022-07-22T12:36:59;3.28;;;1.35;;
51724;SDS011;37801;53.224;6.552;2022-07-22T12:39:27;4.22;;;2.05;;
51724;SDS011;37801;53.224;6.552;2022-07-22T12:41:54;2.65;;;1.00;;
51724;SDS011;37801;53.224;6.552;2022-07-22T12:44:24;3.50;;;1.08;;
51724;SDS011;37801;53.224;6.552;2022-07-22T12:46:51;2.95;;;0.80;;
51724;SDS011;37801;53.224;6.552;2022-07-22T12:49:21;1.20;;;0.50;;
51724;SDS011;37801;53.224;6.552;2022-07-22T12:52:04;1.27;;;0.47;;
51724;SDS011;37801;53.224;6.552;2022-07-22T12:54:35;1.13;;;0.50;;
51724;SDS011;37801;53.224;6.552;2022-07-22T12:57:02;2.28;;;0.68;;
51724;SDS011;37801;53.224;6.552;2022-07-22T12:59:29;1.08;;;0.50;;
51724;SDS011;37801;53.224;6.552;2022-07-22T13:01:55;1.70;;;0.43;;
51724;SDS011;37801;53.224;6.552;2022-07-22T13:04:21;1.55;;;0.55;;
51724;SDS011;37801;53.224;6.552;2022-07-22T13:06:46;1.15;;;0.50;;
51724;SDS011;37801;53.224;6.552;2022-07-22T13:09:12;1.83;;;0.60;;
51724;SDS011;37801;53.224;6.552;2022-07-22T13:11:38;3.28;;;0.88;;
51724;SDS011;37801;53.224;6.552;2022-07-22T13:14:12;0.57;;;0.40;;
51724;SDS011;37801;53.224;6.552;2022-07-22T13:16:39;2.40;;;0.60;;
51724;SDS011;37801;53.224;6.552;2022-07-22T13:19:05;1.52;;;0.50;;
51724;SDS011;37801;53.224;6.552;2022-07-22T13:21:31;0.95;;;0.55;;
51724;SDS011;37801;53.224;6.552;2022-07-22T13:23:57;1.90;;;0.50;;
51724;SDS011;37801;53.224;6.552;2022-07-22T13:26:23;3.13;;;0.73;;
51724;SDS011;37801;53.224;6.552;2022-07-22T13:28:51;3.83;;;0.95;;
51724;SDS011;37801;53.224;6.552;2022-07-22T13:31:17;3.65;;;0.75;;
51724;SDS011;37801;53.224;6.552;2022-07-22T13:33:42;4.25;;;0.82;;
51724;SDS011;37801;53.224;6.552;2022-07-22T13:36:08;3.72;;;0.80;;
51724;SDS011;37801;53.224;6.552;2022-07-22T13:38:34;1.83;;;0.65;;
51724;SDS011;37801;53.224;6.552;2022-07-22T13:40:59;2.92;;;0.60;;
51724;SDS011;37801;53.224;6.552;2022-07-22T13:43:25;1.08;;;0.60;;
51724;SDS011;37801;53.224;6.552;2022-07-22T13:45:52;5.00;;;0.85;;
51724;SDS011;37801;53.224;6.552;2022-07-22T13:48:17;2.60;;;0.70;;
51724;SDS011;37801;53.224;6.552;2022-07-22T13:50:45;2.63;;;0.77;;
51724;SDS011;37801;53.224;6.552;2022-07-22T13:53:11;4.07;;;0.80;;
51724;SDS011;37801;53.224;6.552;2022-07-22T13:55:40;2.50;;;0.60;;
51724;SDS011;37801;53.224;6.552;2022-07-22T13:58:06;2.67;;;0.73;;
51724;SDS011;37801;53.224;6.552;2022-07-22T14:00:32;2.13;;;0.77;;
51724;SDS011;37801;53.224;6.552;2022-07-22T14:02:59;2.35;;;0.68;;
51724;SDS011;37801;53.224;6.552;2022-07-22T14:05:25;3.45;;;0.70;;
51724;SDS011;37801;53.224;6.552;2022-07-22T14:07:51;2.60;;;0.70;;
51724;SDS011;37801;53.224;6.552;2022-07-22T14:10:16;4.63;;;0.80;;
51724;SDS011;37801;53.224;6.552;2022-07-22T14:12:42;7.95;;;1.00;;
51724;SDS011;37801;53.224;6.552;2022-07-22T14:15:09;2.05;;;0.73;;
51724;SDS011;37801;53.224;6.552;2022-07-22T14:17:35;2.00;;;0.70;;
51724;SDS011;37801;53.224;6.552;2022-07-22T14:20:02;2.75;;;0.73;;
51724;SDS011;37801;53.224;6.552;2022-07-22T14:22:29;3.97;;;0.70;;
51724;SDS011;37801;53.224;6.552;2022-07-22T14:24:55;2.70;;;1.15;;
51724;SDS011;37801;53.224;6.552;2022-07-22T14:27:21;2.40;;;0.68;;
51724;SDS011;37801;53.224;6.552;2022-07-22T14:29:47;4.38;;;1.20;;
51724;SDS011;37801;53.224;6.552;2022-07-22T14:32:13;1.85;;;0.60;;
51724;SDS011;37801;53.224;6.552;2022-07-22T14:34:39;11.82;;;6.05;;
51724;SDS011;37801;53.224;6.552;2022-07-22T14:37:04;5.35;;;2.88;;
51724;SDS011;37801;53.224;6.552;2022-07-22T14:39:30;5.93;;;1.92;;
51724;SDS011;37801;53.224;6.552;2022-07-22T14:41:56;2.33;;;0.90;;
51724;SDS011;37801;53.224;6.552;2022-07-22T14:44:21;2.20;;;0.60;;
51724;SDS011;37801;53.224;6.552;2022-07-22T14:46:47;2.65;;;0.68;;
51724;SDS011;37801;53.224;6.552;2022-07-22T14:49:13;1.60;;;0.60;;
51724;SDS011;37801;53.224;6.552;2022-07-22T14:51:38;2.17;;;0.70;;
51724;SDS011;37801;53.224;6.552;2022-07-22T14:54:04;2.85;;;0.70;;
51724;SDS011;37801;53.224;6.552;2022-07-22T14:56:31;3.75;;;0.80;;
51724;SDS011;37801;53.224;6.552;2022-07-22T14:58:57;2.97;;;0.90;;
51724;SDS011;37801;53.224;6.552;2022-07-22T15:01:23;1.73;;;0.70;;
51724;SDS011;37801;53.224;6.552;2022-07-22T15:03:48;2.38;;;0.80;;
51724;SDS011;37801;53.224;6.552;2022-07-22T15:06:14;3.85;;;0.90;;
51724;SDS011;37801;53.224;6.552;2022-07-22T15:08:40;3.03;;;0.85;;
51724;SDS011;37801;53.224;6.552;2022-07-22T15:11:05;5.03;;;2.63;;
51724;SDS011;37801;53.224;6.552;2022-07-22T15:13:31;4.95;;;1.70;;
51724;SDS011;37801;53.224;6.552;2022-07-22T15:15:57;2.50;;;1.08;;
51724;SDS011;37801;53.224;6.552;2022-07-22T15:18:23;2.40;;;0.80;;